KEDJ

Bellefontaine Regional Airport

Bellefontaine, Ohio, USA
METAR KEDJ 191515Z AUTO 09005KT 10SM CLR 23/18 A3003 RMK AO1
Observed Flight Rules
Aug-19 @ 15:15 UTC (23 minutes ago) Visual Flight Rules
Wind Visibility Clouds
90° at 5 knots 10 miles
  • Clear skies
Temperatures Readings
Current 23°C / 73°F
Dewpoint 18°C / 64°F
Humidity 74%
Altimeter 30.03" Hg
Pressure 1017 hPa
Elevation 342
METAR KEDJ 191515Z AUTO 09005KT 10SM CLR 23/18 A3003 RMK AO1
Observed Flight Rules
Aug-19 @ 15:15 UTC
(23 minutes ago)
VFR
Wind Visibility
90° at 5 knots 10 miles
Clouds
  • Clear skies
Temperature Dewpoint
23°C / 73°F 18°C / 64°F
Humidity Altimeter Pressure
74% 30.03" Hg 1017 hPa